Sunday, April 22, 2018, 1:51 PM EDT

KPOU, Poughkeepsie Dutchess Cty

Location: Wappingers Falls, NY, United States Lat: 41.633
Local Time: 1:51 PM EDT (17:51 GMT) Lon: -73.883
Time Zone: US/Eastern Elev: 167 ft

Show me the last for .
Show Decoded

2018-04-22 12:53 METAR KPOU 221653Z 00000KT 10SM CLR 14/M09 A3036 RMK AO2 SLP279 T01441089 =
2018-04-22 11:53 METAR KPOU 221553Z 31007KT 10SM CLR 14/M07 A3039 RMK AO2 SLP287 T01441072 =
2018-04-22 10:53 METAR KPOU 221453Z 27006KT 10SM CLR 12/M09 A3040 RMK AO2 SLP293 T01221089 58004
                 =
2018-04-22 09:53 METAR KPOU 221353Z 00000KT 10SM CLR 10/M04 A3041 RMK AO2 SLP294 T01001039 =
2018-04-22 08:53 METAR KPOU 221253Z 00000KT 10SM CLR 07/M03 A3041 RMK AO2 SLP297 T00671033 =
2018-04-22 07:53 METAR KPOU 221153Z 00000KT 10SM CLR 03/M03 A3042 RMK AO2 SLP297 T00281028 10028
                 21028 51015 =
2018-04-22 06:53 METAR KPOU 221053Z 00000KT 10SM CLR M01/M04 A3040 RMK AO2 SLP294 T10111044 =
2018-04-22 05:53 METAR KPOU 220953Z AUTO 00000KT 10SM CLR M02/M06 A3038 RMK AO2 SLP287 T10221056
                 =
2018-04-22 04:53 METAR KPOU 220853Z AUTO 00000KT 10SM CLR M02/M05 A3037 RMK AO2 SLP282 T10171050
                 50001 =
2018-04-22 03:53 METAR KPOU 220753Z AUTO 00000KT 10SM CLR M01/M06 A3038 RMK AO2 SLP285 T10111056
                 =
2018-04-22 02:53 METAR KPOU 220653Z AUTO 00000KT 10SM CLR 00/M06 A3037 RMK AO2 SLP283 T00001061 =
2018-04-22 01:53 METAR KPOU 220553Z AUTO 00000KT 10SM CLR 01/M06 A3037 RMK AO2 SLP281 T00111056
                 10122 20006 51009 =
2018-04-22 00:53 METAR KPOU 220453Z AUTO 00000KT 10SM CLR 02/M04 A3037 RMK AO2 SLP281 T00221039
                 401561033 =
2018-04-21 23:53 METAR KPOU 220353Z AUTO 00000KT 10SM CLR 04/M04 A3035 RMK AO2 SLP275 T00391044 =
2018-04-21 22:53 METAR KPOU 220253Z AUTO 36004KT 10SM CLR 05/M06 A3034 RMK AO2 SLP273 T00501061
                 51021 =
2018-04-21 21:53 METAR KPOU 220153Z AUTO 33004KT 10SM CLR 09/M08 A3032 RMK AO2 SLP267 T00941083 =
2018-04-21 20:53 METAR KPOU 220053Z 31005KT 10SM CLR 11/M08 A3031 RMK AO2 SLP261 T01111083 =
2018-04-21 19:53 METAR KPOU 212353Z 32006KT 10SM CLR 12/M08 A3028 RMK AO2 SLP252 T01171078 10156
                 20117 53014 =
2018-04-21 18:53 METAR KPOU 212253Z 32008KT 10SM CLR 14/M08 A3026 RMK AO2 SLP244 T01391083 =
2018-04-21 17:53 METAR KPOU 212153Z 33012G18KT 10SM CLR 15/M09 A3024 RMK AO2 SLP238 T01501089 =
2018-04-21 16:53 METAR KPOU 212053Z 34011G21KT 10SM CLR 16/M08 A3024 RMK AO2 SLP238 T01561083
                 56019 =
2018-04-21 15:53 METAR KPOU 211953Z 36012G16KT 10SM CLR 16/M07 A3025 RMK AO2 SLP240 T01561072 =
2018-04-21 14:53 METAR KPOU 211853Z 30011G18KT 10SM CLR 15/M07 A3027 RMK AO2 SLP247 T01501067 =
2018-04-21 13:53 METAR KPOU 211753Z 33008KT 300V010 10SM CLR 14/M06 A3030 RMK AO2 SLP257
                 T01391056 10139 20022 56028 =

Support USWX by starting your Amazon purchase here.